createdAt,value
2023-11-30T00:00:44.750Z,99.30
2023-11-30T00:03:12.280Z,99.83
2023-11-30T00:05:39.790Z,99.92
2023-11-30T00:08:07.116Z,99.82
2023-11-30T00:10:34.490Z,99.75
2023-11-30T00:13:01.866Z,99.74
2023-11-30T00:15:29.746Z,99.37
2023-11-30T00:17:57.203Z,99.80
2023-11-30T00:20:24.808Z,99.81
2023-11-30T00:22:52.260Z,99.71
2023-11-30T00:25:19.755Z,99.93
2023-11-30T00:27:47.092Z,99.76
2023-11-30T00:30:15.079Z,99.83
2023-11-30T00:32:42.523Z,99.89
2023-11-30T00:35:09.964Z,99.90
2023-11-30T00:37:38.842Z,99.98
2023-11-30T00:40:07.162Z,100.00
2023-11-30T00:42:34.838Z,99.97
2023-11-30T00:45:02.403Z,99.56
2023-11-30T00:47:29.861Z,98.72
2023-11-30T00:49:57.354Z,98.15
2023-11-30T00:52:24.757Z,98.27
2023-11-30T00:54:52.154Z,98.72
2023-11-30T00:57:19.596Z,98.59
2023-11-30T00:59:47.291Z,98.18
2023-11-30T01:02:15.086Z,97.60
2023-11-30T01:04:43.448Z,97.48
2023-11-30T01:07:10.915Z,97.73
2023-11-30T01:09:40.259Z,99.07
2023-11-30T01:12:07.852Z,99.56
2023-11-30T01:14:35.296Z,99.79
2023-11-30T01:17:02.919Z,100.00
2023-11-30T01:19:30.285Z,99.92
2023-11-30T01:21:57.941Z,99.50
2023-11-30T01:24:25.824Z,99.78
2023-11-30T01:26:53.351Z,99.45
2023-11-30T01:29:20.682Z,98.76
2023-11-30T01:31:48.095Z,98.81
2023-11-30T01:34:15.464Z,99.27
2023-11-30T01:36:42.848Z,98.47
2023-11-30T01:39:10.428Z,97.63
2023-11-30T01:41:37.806Z,97.20
2023-11-30T01:44:05.359Z,96.80
2023-11-30T01:46:40.312Z,96.32
2023-11-30T01:49:10.270Z,96.67
2023-11-30T01:51:39.354Z,97.08
2023-11-30T01:54:07.062Z,96.35
2023-11-30T01:56:34.558Z,96.92
2023-11-30T01:59:02.072Z,97.27
2023-11-30T02:01:29.433Z,96.37
2023-11-30T02:03:58.008Z,96.68
2023-11-30T02:06:25.450Z,96.72
2023-11-30T02:08:52.928Z,96.14
2023-11-30T02:11:20.268Z,95.66
2023-11-30T02:13:47.645Z,95.31
2023-11-30T02:16:15.070Z,95.22
2023-11-30T02:18:42.534Z,95.43
2023-11-30T02:24:03.198Z,94.27
2023-11-30T02:26:30.793Z,94.66
2023-11-30T02:28:58.105Z,94.72
2023-11-30T02:31:25.474Z,94.65
2023-11-30T02:33:52.976Z,94.26
2023-11-30T02:36:20.405Z,94.18
2023-11-30T02:38:47.856Z,94.50
2023-11-30T02:41:17.473Z,94.54
2023-11-30T02:43:44.849Z,94.95
2023-11-30T02:46:12.452Z,95.17
2023-11-30T02:48:39.930Z,95.53
2023-11-30T02:51:07.607Z,95.58
2023-11-30T02:53:35.173Z,95.40
2023-11-30T02:56:02.614Z,95.50
2023-11-30T02:58:29.962Z,95.55
2023-11-30T03:00:58.406Z,95.69
2023-11-30T03:03:26.310Z,96.19
2023-11-30T03:05:53.858Z,96.38
2023-11-30T03:08:21.226Z,96.04
2023-11-30T03:10:48.616Z,95.57
2023-11-30T03:13:15.939Z,95.73
2023-11-30T03:15:47.601Z,95.97
2023-11-30T03:18:15.597Z,96.06
2023-11-30T03:20:43.466Z,96.50
2023-11-30T03:23:10.819Z,96.27
2023-11-30T03:25:40.928Z,95.94
2023-11-30T03:28:08.494Z,95.91
2023-11-30T03:30:36.036Z,95.36
2023-11-30T03:33:03.769Z,94.89
2023-11-30T03:35:31.233Z,94.79
2023-11-30T03:37:58.634Z,95.32
2023-11-30T03:40:26.170Z,95.54
2023-11-30T03:42:53.550Z,95.79
2023-11-30T03:45:23.169Z,95.72
2023-11-30T03:47:50.688Z,95.29
2023-11-30T03:50:18.157Z,95.11
2023-11-30T03:52:45.534Z,94.98
2023-11-30T03:55:13.173Z,94.35
2023-11-30T03:57:40.564Z,94.50
2023-11-30T04:00:13.566Z,94.55
2023-11-30T04:02:42.129Z,94.73
2023-11-30T04:05:11.840Z,95.38
2023-11-30T04:07:40.466Z,95.41
2023-11-30T04:10:08.645Z,95.47
2023-11-30T04:12:36.081Z,95.54
2023-11-30T04:15:05.481Z,95.50
2023-11-30T04:17:33.019Z,95.20
2023-11-30T04:20:01.570Z,94.40
2023-11-30T04:22:29.314Z,94.47
2023-11-30T04:24:56.638Z,94.03
2023-11-30T04:27:24.034Z,94.58
2023-11-30T04:29:51.698Z,94.77
2023-11-30T04:32:19.312Z,94.81
2023-11-30T04:34:46.691Z,94.84
2023-11-30T04:37:14.486Z,95.29
2023-11-30T04:39:41.909Z,95.22
2023-11-30T04:42:09.299Z,95.89
2023-11-30T04:44:36.742Z,96.39
2023-11-30T04:47:04.211Z,96.67
2023-11-30T04:49:31.549Z,96.89
2023-11-30T04:51:58.886Z,96.93
2023-11-30T04:54:26.352Z,96.78
2023-11-30T04:56:53.820Z,96.03
2023-11-30T04:59:21.268Z,95.83
2023-11-30T05:01:48.980Z,96.12
2023-11-30T05:04:16.548Z,96.25
2023-11-30T05:06:43.990Z,96.29
2023-11-30T05:09:11.745Z,96.60
2023-11-30T05:11:39.086Z,96.61
2023-11-30T05:14:06.511Z,96.54
2023-11-30T05:16:34.221Z,96.01
2023-11-30T05:19:01.608Z,96.21
2023-11-30T05:21:28.978Z,96.47
2023-11-30T05:23:56.686Z,96.40
2023-11-30T05:26:25.120Z,96.66
2023-11-30T05:28:53.473Z,97.04
2023-11-30T05:31:21.070Z,96.83
2023-11-30T05:33:48.503Z,96.35
2023-11-30T05:36:15.837Z,96.42
2023-11-30T05:38:43.253Z,95.96
2023-11-30T05:41:10.597Z,95.67
2023-11-30T05:43:38.357Z,95.35
2023-11-30T05:46:06.512Z,95.45
2023-11-30T05:48:35.047Z,95.01
2023-11-30T05:51:02.544Z,95.26
2023-11-30T05:53:30.246Z,95.65
2023-11-30T05:55:57.578Z,95.84
2023-11-30T05:58:24.949Z,96.06
2023-11-30T06:00:52.618Z,95.82
2023-11-30T06:03:20.087Z,96.29
2023-11-30T06:05:47.567Z,96.36
2023-11-30T06:08:15.180Z,96.16
2023-11-30T06:10:42.619Z,95.73
2023-11-30T06:13:10.252Z,95.45
2023-11-30T06:15:37.881Z,95.51
2023-11-30T06:18:05.468Z,95.81
2023-11-30T06:20:32.876Z,95.80
2023-11-30T06:23:00.294Z,95.54
2023-11-30T06:25:27.629Z,95.66
2023-11-30T06:27:54.931Z,95.49
2023-11-30T06:30:22.302Z,95.46
2023-11-30T06:32:50.000Z,95.45
2023-11-30T06:36:25.464Z,96.09
2023-11-30T06:38:52.939Z,96.02
2023-11-30T06:41:20.287Z,96.45
2023-11-30T06:43:47.800Z,96.56
2023-11-30T06:46:24.464Z,96.63
2023-11-30T06:48:53.738Z,96.80
2023-11-30T06:51:21.160Z,96.68
2023-11-30T06:53:48.569Z,96.44
2023-11-30T06:56:16.131Z,96.93
2023-11-30T06:58:43.559Z,97.27
2023-11-30T07:01:11.100Z,96.43
2023-11-30T07:03:42.754Z,96.63
2023-11-30T07:06:11.310Z,96.88
2023-11-30T07:08:38.830Z,96.93
2023-11-30T07:11:11.744Z,97.11
2023-11-30T07:13:39.371Z,97.39
2023-11-30T07:16:07.896Z,97.31
2023-11-30T07:18:35.302Z,97.57
2023-11-30T07:21:03.133Z,97.26
2023-11-30T07:23:30.451Z,97.08
2023-11-30T07:25:59.952Z,96.68
2023-11-30T07:28:27.544Z,96.79
2023-11-30T07:30:54.907Z,96.93
2023-11-30T07:33:22.532Z,96.92
2023-11-30T07:35:49.912Z,96.95
2023-11-30T07:38:17.301Z,96.82
2023-11-30T07:40:44.641Z,97.02
2023-11-30T07:43:12.996Z,96.81
2023-11-30T07:45:40.396Z,96.55
2023-11-30T07:48:07.858Z,96.73
2023-11-30T07:50:35.673Z,97.40
2023-11-30T07:53:05.358Z,97.75
2023-11-30T07:55:32.886Z,97.51
2023-11-30T07:58:00.259Z,98.02
2023-11-30T08:00:27.622Z,97.96
2023-11-30T08:02:56.035Z,98.08
2023-11-30T08:05:25.086Z,98.65
2023-11-30T08:07:53.434Z,98.64
2023-11-30T08:10:20.965Z,98.70
2023-11-30T08:12:48.303Z,98.91
2023-11-30T08:15:15.720Z,98.99
2023-11-30T08:17:43.648Z,99.24
2023-11-30T08:20:15.346Z,99.69
2023-11-30T08:22:42.814Z,99.52
2023-11-30T08:25:13.166Z,99.23
2023-11-30T08:27:40.608Z,99.29
2023-11-30T08:30:10.977Z,99.31
2023-11-30T08:32:38.802Z,99.53
2023-11-30T08:35:07.372Z,99.79
2023-11-30T08:37:34.833Z,99.98
2023-11-30T08:40:02.505Z,100.00
2023-11-30T08:42:30.186Z,100.00
2023-11-30T08:44:57.530Z,100.00
2023-11-30T08:47:25.796Z,100.00
2023-11-30T08:49:53.397Z,100.00
2023-11-30T08:52:20.774Z,100.00
2023-11-30T08:54:48.460Z,100.00
2023-11-30T08:57:16.016Z,100.00
2023-11-30T08:59:44.925Z,100.00
2023-11-30T09:02:12.412Z,100.00
2023-11-30T09:04:40.026Z,100.00
2023-11-30T09:07:07.755Z,100.00
2023-11-30T09:09:35.177Z,99.99
2023-11-30T09:12:03.669Z,99.96
2023-11-30T09:14:32.121Z,99.23
2023-11-30T09:17:02.707Z,98.88
2023-11-30T09:19:30.280Z,98.93
2023-11-30T09:21:58.399Z,98.80
2023-11-30T09:24:26.118Z,98.51
2023-11-30T09:26:54.478Z,98.58
2023-11-30T09:29:22.000Z,98.64
2023-11-30T09:31:49.443Z,98.51
2023-11-30T09:34:16.959Z,98.26
2023-11-30T09:36:44.630Z,98.26
2023-11-30T09:39:15.820Z,97.99
2023-11-30T09:41:43.352Z,97.87
2023-11-30T09:44:10.789Z,97.25
2023-11-30T09:46:40.036Z,97.13
2023-11-30T09:49:10.080Z,97.33
2023-11-30T09:51:38.249Z,97.71
2023-11-30T09:54:06.025Z,97.60
2023-11-30T09:56:33.629Z,97.55
2023-11-30T09:59:01.021Z,97.18
2023-11-30T10:01:28.462Z,97.00
2023-11-30T10:03:56.251Z,96.92
2023-11-30T10:06:23.812Z,96.21
2023-11-30T10:08:51.232Z,95.88
2023-11-30T10:11:21.109Z,95.84
2023-11-30T10:13:48.682Z,95.69
2023-11-30T10:16:16.730Z,95.48
2023-11-30T10:18:44.461Z,95.93
2023-11-30T10:21:11.970Z,96.04
2023-11-30T10:23:39.534Z,96.52
2023-11-30T10:26:07.393Z,96.31
2023-11-30T10:28:35.144Z,96.67
2023-11-30T10:31:04.264Z,96.84
2023-11-30T10:33:34.275Z,96.89
2023-11-30T10:36:05.984Z,96.66
2023-11-30T10:38:34.396Z,96.21
2023-11-30T10:41:08.091Z,96.13
2023-11-30T10:43:37.302Z,95.69
2023-11-30T10:46:05.690Z,96.07
2023-11-30T10:48:33.385Z,95.95
2023-11-30T10:51:01.837Z,95.71
2023-11-30T10:53:32.397Z,95.25
2023-11-30T10:55:59.812Z,95.49
2023-11-30T10:58:27.592Z,95.76
2023-11-30T11:01:01.022Z,95.58
2023-11-30T11:03:29.479Z,95.30
2023-11-30T11:05:57.528Z,95.77
2023-11-30T11:08:25.328Z,95.80
2023-11-30T11:10:53.020Z,96.30
2023-11-30T11:13:25.408Z,96.85
2023-11-30T11:16:04.327Z,97.32
2023-11-30T11:18:32.720Z,98.02
2023-11-30T11:21:00.783Z,98.36
2023-11-30T11:23:35.696Z,98.37
2023-11-30T11:26:05.907Z,98.15
2023-11-30T11:28:33.337Z,97.83
2023-11-30T11:31:00.857Z,97.16
2023-11-30T11:33:29.342Z,97.31
2023-11-30T11:35:57.233Z,97.44
2023-11-30T11:38:25.100Z,97.80
2023-11-30T11:40:54.813Z,98.02
2023-11-30T11:43:22.296Z,98.57
2023-11-30T11:45:49.820Z,98.34
2023-11-30T11:48:17.435Z,98.27
2023-11-30T11:50:45.019Z,97.75
2023-11-30T11:53:12.502Z,97.91
2023-11-30T11:55:40.007Z,97.74
2023-11-30T11:58:07.418Z,97.71
2023-11-30T12:00:35.123Z,98.36
2023-11-30T12:03:07.069Z,98.95
2023-11-30T12:05:34.754Z,99.71
2023-11-30T12:08:02.585Z,99.99
2023-11-30T12:10:33.959Z,100.00
2023-11-30T12:13:02.658Z,100.00
2023-11-30T12:15:30.665Z,99.99
2023-11-30T12:17:58.507Z,99.96
2023-11-30T12:20:26.162Z,99.86
2023-11-30T12:22:53.648Z,99.70
2023-11-30T12:25:21.386Z,99.54
2023-11-30T12:27:49.047Z,99.66
2023-11-30T12:30:16.625Z,99.87
2023-11-30T12:32:44.144Z,99.68
2023-11-30T12:35:11.711Z,99.52
2023-11-30T12:37:39.432Z,99.59
2023-11-30T12:40:11.508Z,99.58
2023-11-30T12:42:39.124Z,99.63
2023-11-30T12:45:08.532Z,99.78
2023-11-30T12:47:36.068Z,99.73
2023-11-30T12:50:06.164Z,99.71
2023-11-30T12:52:33.643Z,99.90
2023-11-30T12:55:01.712Z,99.94
2023-11-30T12:57:29.656Z,99.99
2023-11-30T12:59:57.112Z,100.00
2023-11-30T13:02:24.671Z,100.00
2023-11-30T13:04:52.774Z,100.00
2023-11-30T13:07:20.243Z,100.00
2023-11-30T13:09:47.796Z,100.00
2023-11-30T13:12:15.467Z,100.00
2023-11-30T13:14:42.909Z,99.90
2023-11-30T13:17:10.450Z,99.95
2023-11-30T13:19:38.149Z,99.94
2023-11-30T13:22:06.564Z,100.00
2023-11-30T13:24:34.102Z,100.00
2023-11-30T13:27:01.761Z,100.00
2023-11-30T13:29:29.177Z,100.00
2023-11-30T13:31:56.625Z,100.00
2023-11-30T13:34:24.077Z,100.00
2023-11-30T13:36:51.707Z,100.00
2023-11-30T13:39:19.145Z,100.00
2023-11-30T13:41:46.708Z,100.00
2023-11-30T13:44:14.957Z,100.00
2023-11-30T13:46:43.062Z,100.00
2023-11-30T13:49:14.833Z,100.00
2023-11-30T13:51:42.646Z,100.00
2023-11-30T13:54:10.312Z,100.00
2023-11-30T13:56:39.234Z,100.00
2023-11-30T13:59:07.097Z,100.00
2023-11-30T14:01:35.280Z,100.00
2023-11-30T14:04:05.302Z,100.00
2023-11-30T14:06:33.426Z,100.00
2023-11-30T14:09:00.896Z,100.00
2023-11-30T14:11:28.591Z,100.00
2023-11-30T14:13:56.035Z,100.00
2023-11-30T14:16:23.667Z,100.00
2023-11-30T14:18:51.770Z,100.00
2023-11-30T14:21:19.796Z,100.00
2023-11-30T14:23:48.132Z,100.00
2023-11-30T14:26:16.469Z,100.00
2023-11-30T14:28:49.162Z,100.00
2023-11-30T14:31:19.804Z,100.00
2023-11-30T14:33:48.620Z,100.00
2023-11-30T14:36:16.614Z,100.00
2023-11-30T14:38:45.103Z,100.00
2023-11-30T14:41:12.582Z,100.00
2023-11-30T14:43:40.176Z,100.00
2023-11-30T14:46:07.823Z,99.92
2023-11-30T14:48:35.391Z,99.73
2023-11-30T14:51:03.728Z,99.41
2023-11-30T14:53:31.686Z,99.13
2023-11-30T14:55:59.207Z,98.62
2023-11-30T14:58:26.683Z,98.38
2023-11-30T15:00:54.255Z,97.87
2023-11-30T15:03:22.082Z,97.65
2023-11-30T15:05:49.643Z,97.38
2023-11-30T15:08:18.467Z,96.92
2023-11-30T15:10:49.620Z,96.52
2023-11-30T15:13:18.165Z,96.27
2023-11-30T15:15:46.295Z,95.96
2023-11-30T15:18:13.916Z,95.92
2023-11-30T15:20:43.737Z,95.63
2023-11-30T15:23:11.125Z,95.58
2023-11-30T15:25:39.869Z,95.53
2023-11-30T15:28:11.284Z,95.38
2023-11-30T15:30:39.510Z,95.35
2023-11-30T15:33:08.415Z,95.45
2023-11-30T15:35:37.157Z,95.29
2023-11-30T15:38:05.524Z,95.26
2023-11-30T15:40:33.101Z,95.28
2023-11-30T15:43:00.654Z,95.39
2023-11-30T15:45:28.689Z,95.25
2023-11-30T15:47:56.376Z,95.28
2023-11-30T15:50:25.892Z,95.15
2023-11-30T15:52:53.430Z,95.18
2023-11-30T15:55:20.961Z,95.01
2023-11-30T15:57:49.030Z,94.99
2023-11-30T16:00:17.545Z,94.97
2023-11-30T16:02:48.425Z,94.80
2023-11-30T16:05:16.490Z,94.42
2023-11-30T16:07:44.538Z,94.26
2023-11-30T16:10:12.382Z,94.25
2023-11-30T16:12:40.080Z,94.28
2023-11-30T16:15:09.448Z,94.37
2023-11-30T16:17:36.960Z,94.35
2023-11-30T16:20:11.355Z,94.26
2023-11-30T16:22:40.391Z,94.40
2023-11-30T16:25:09.020Z,94.45
2023-11-30T16:27:36.534Z,94.51
2023-11-30T16:30:05.430Z,94.72
2023-11-30T16:32:33.222Z,94.82
2023-11-30T16:35:04.592Z,95.03
2023-11-30T16:37:32.164Z,95.09
2023-11-30T16:39:59.971Z,95.08
2023-11-30T16:42:29.343Z,95.25
2023-11-30T16:44:57.280Z,94.97
2023-11-30T16:47:25.108Z,95.11
2023-11-30T16:49:52.775Z,95.19
2023-11-30T16:52:20.329Z,94.81
2023-11-30T16:54:48.109Z,95.00
2023-11-30T16:57:15.920Z,95.01
2023-11-30T16:59:43.522Z,95.19
2023-11-30T17:02:11.527Z,95.29
2023-11-30T17:04:39.359Z,95.42
2023-11-30T17:07:07.128Z,95.43
2023-11-30T17:09:34.766Z,95.26
2023-11-30T17:12:02.497Z,95.26
2023-11-30T17:14:29.978Z,95.12
2023-11-30T17:17:02.216Z,94.90
2023-11-30T17:19:29.820Z,94.73
2023-11-30T17:21:57.497Z,94.94
2023-11-30T17:24:25.576Z,94.71
2023-11-30T17:26:57.367Z,94.55
2023-11-30T17:29:24.953Z,94.71
2023-11-30T17:31:52.859Z,94.28
2023-11-30T17:34:20.721Z,94.23
2023-11-30T17:36:48.977Z,94.07
2023-11-30T17:39:17.821Z,93.93
2023-11-30T17:41:45.889Z,93.77
2023-11-30T17:44:13.517Z,93.69
2023-11-30T17:46:42.919Z,93.58
2023-11-30T17:49:11.218Z,93.55
2023-11-30T17:51:39.183Z,93.60
2023-11-30T17:54:06.805Z,93.34
2023-11-30T17:56:34.391Z,93.33
2023-11-30T17:59:01.887Z,93.41
2023-11-30T18:01:30.263Z,93.33
2023-11-30T18:03:57.962Z,93.32
2023-11-30T18:06:26.945Z,93.32
2023-11-30T18:08:55.482Z,93.12
2023-11-30T18:11:23.247Z,92.95
2023-11-30T18:13:51.093Z,92.79
2023-11-30T18:16:19.055Z,92.66
2023-11-30T18:18:47.394Z,92.71
2023-11-30T18:21:15.229Z,92.61
2023-11-30T18:23:42.892Z,92.63
2023-11-30T18:26:10.835Z,92.57
2023-11-30T18:28:38.500Z,92.78
2023-11-30T18:31:16.313Z,92.88
2023-11-30T18:33:49.880Z,93.07
2023-11-30T18:36:17.808Z,92.98
2023-11-30T18:38:50.646Z,92.88
2023-11-30T18:41:20.837Z,92.92
2023-11-30T18:43:49.525Z,92.88
2023-11-30T18:46:17.630Z,92.77
2023-11-30T18:48:46.850Z,92.76
2023-11-30T18:51:14.737Z,92.68
2023-11-30T18:56:06.342Z,92.91
2023-11-30T18:58:33.997Z,92.90
2023-11-30T19:01:01.808Z,92.80
2023-11-30T19:03:29.540Z,92.79
2023-11-30T19:05:57.729Z,92.87
2023-11-30T19:08:25.518Z,92.91
2023-11-30T19:10:53.367Z,92.85
2023-11-30T19:13:21.090Z,93.08
2023-11-30T19:15:51.314Z,93.06
2023-11-30T19:18:19.137Z,92.94
2023-11-30T19:20:46.816Z,92.71
2023-11-30T19:23:14.620Z,92.50
2023-11-30T19:25:44.233Z,92.51
2023-11-30T19:28:12.078Z,92.37
2023-11-30T19:30:40.181Z,92.33
2023-11-30T19:33:08.250Z,91.93
2023-11-30T19:35:36.923Z,91.77
2023-11-30T19:38:04.802Z,91.83
2023-11-30T19:40:32.679Z,91.62
2023-11-30T19:43:00.580Z,91.52
2023-11-30T19:45:28.500Z,91.49
2023-11-30T19:47:56.377Z,91.52
2023-11-30T19:50:24.612Z,91.75
2023-11-30T19:52:52.385Z,91.79
2023-11-30T19:55:20.246Z,91.92
2023-11-30T19:57:48.274Z,92.08
2023-11-30T20:00:16.689Z,92.18
2023-11-30T20:02:44.609Z,91.99
2023-11-30T20:05:13.882Z,91.93
2023-11-30T20:07:41.979Z,92.04
2023-11-30T20:10:12.157Z,91.82
2023-11-30T20:12:42.707Z,91.95
2023-11-30T20:15:10.682Z,92.03
2023-11-30T20:17:38.968Z,92.28
2023-11-30T20:20:07.625Z,92.55
2023-11-30T20:22:35.339Z,92.86
2023-11-30T20:25:03.640Z,92.58
2023-11-30T20:27:31.579Z,92.26
2023-11-30T20:30:00.258Z,92.47
2023-11-30T20:32:28.128Z,92.46
2023-11-30T20:34:55.835Z,92.34
2023-11-30T20:37:23.704Z,92.52
2023-11-30T20:39:51.393Z,92.64
2023-11-30T20:42:19.042Z,92.56
2023-11-30T20:44:52.799Z,92.68
2023-11-30T20:47:30.086Z,92.76
2023-11-30T20:49:57.793Z,92.89
2023-11-30T20:52:25.326Z,92.82
2023-11-30T20:54:53.376Z,92.81
2023-11-30T20:57:20.884Z,92.97
2023-11-30T20:59:48.348Z,93.25
2023-11-30T21:05:01.366Z,93.40
2023-11-30T21:07:28.985Z,93.29
2023-11-30T21:09:57.078Z,93.17
2023-11-30T21:12:24.820Z,93.09
2023-11-30T21:14:52.422Z,93.14
2023-11-30T21:17:22.264Z,93.24
2023-11-30T21:19:49.790Z,93.10
2023-11-30T21:22:17.462Z,92.94
2023-11-30T21:24:46.225Z,92.80
2023-11-30T21:27:14.370Z,92.74
2023-11-30T21:29:41.877Z,93.23
2023-11-30T21:32:10.371Z,93.14
2023-11-30T21:34:38.567Z,93.23
2023-11-30T21:37:06.184Z,93.53
2023-11-30T21:39:35.335Z,93.49
2023-11-30T21:42:04.076Z,93.58
2023-11-30T21:44:31.636Z,93.86
2023-11-30T21:46:59.234Z,93.96
2023-11-30T21:49:26.694Z,94.03
2023-11-30T21:51:54.625Z,94.19
2023-11-30T21:54:22.386Z,94.32
2023-11-30T21:56:50.340Z,94.33
2023-11-30T21:59:18.954Z,94.40
2023-11-30T22:01:47.031Z,94.68
2023-11-30T22:04:14.905Z,94.83
2023-11-30T22:06:44.172Z,94.68
2023-11-30T22:09:11.657Z,94.81
2023-11-30T22:11:44.150Z,94.89
2023-11-30T22:14:12.007Z,94.88
2023-11-30T22:16:41.733Z,95.26
2023-11-30T22:19:09.948Z,95.22
2023-11-30T22:21:37.620Z,95.17
2023-11-30T22:24:05.699Z,95.09
2023-11-30T22:26:33.137Z,95.13
2023-11-30T22:29:02.198Z,95.20
2023-11-30T22:31:34.719Z,95.27
2023-11-30T22:34:02.433Z,95.32
2023-11-30T22:36:30.103Z,95.29
2023-11-30T22:38:58.625Z,95.29
2023-11-30T22:41:26.314Z,95.43
2023-11-30T22:43:54.151Z,95.24
2023-11-30T22:46:21.952Z,94.99
2023-11-30T22:48:50.353Z,94.99
2023-11-30T22:51:18.594Z,94.74
2023-11-30T22:53:46.743Z,94.56
2023-11-30T22:56:21.362Z,94.32
2023-11-30T22:58:50.106Z,93.98
2023-11-30T23:01:18.217Z,93.93
2023-11-30T23:03:46.206Z,93.77
2023-11-30T23:06:14.705Z,93.71
2023-11-30T23:08:42.745Z,93.76
2023-11-30T23:11:10.377Z,93.85
2023-11-30T23:13:37.979Z,93.94
2023-11-30T23:16:06.117Z,93.87
2023-11-30T23:18:33.655Z,94.23
2023-11-30T23:21:01.417Z,94.31
2023-11-30T23:23:29.170Z,94.48
2023-11-30T23:25:56.693Z,94.67
2023-11-30T23:28:24.357Z,94.88
2023-11-30T23:30:51.882Z,95.17
2023-11-30T23:33:19.573Z,95.53
2023-11-30T23:35:47.564Z,95.72
2023-11-30T23:38:14.982Z,95.96
2023-11-30T23:40:42.399Z,96.39
2023-11-30T23:43:10.219Z,96.58
2023-11-30T23:45:37.789Z,96.94
2023-11-30T23:48:05.742Z,97.08
2023-11-30T23:50:33.474Z,97.36
2023-11-30T23:53:01.099Z,97.70
2023-11-30T23:55:28.566Z,98.27
2023-11-30T23:57:56.135Z,98.90
